Time;durP1;ratioP1;P1;durP2;ratioP2;P2;SDS_P1;SDS_P2;PMS_P1;PMS_P2;Temp;Humidity;BMP_temperature;BMP_pressure;BME280_temperature;BME280_humidity;BME280_pressure;Samples;Min_cycle;Max_cycle;Signal;HPM_P1;HPM_P2
2022/07/29 00:01:47;;;;;;;7.72;4.10;;;22.10;91.80;;;;;;5060561;28;20045;-87
2022/07/29 00:04:12;;;;;;;6.90;4.05;;;22.00;92.00;;;;;;5060769;28;20040;-85
2022/07/29 00:06:38;;;;;;;5.28;3.47;;;21.90;92.30;;;;;;5043984;28;20025;-87
2022/07/29 00:09:05;;;;;;;5.97;4.10;;;21.80;92.50;;;;;;5060819;28;20025;-85
2022/07/29 00:11:31;;;;;;;5.55;3.63;;;21.80;92.70;;;;;;5044032;28;20097;-87
2022/07/29 00:13:57;;;;;;;7.93;4.10;;;21.70;93.10;;;;;;5043358;28;20013;-86
2022/07/29 00:16:23;;;;;;;10.40;4.10;;;21.70;93.40;;;;;;5043946;28;20022;-86
2022/07/29 00:18:49;;;;;;;7.43;3.40;;;21.70;93.60;;;;;;5060560;28;20021;-86
2022/07/29 00:21:14;;;;;;;8.65;4.65;;;21.70;93.70;;;;;;5043636;28;20033;-86
2022/07/29 00:23:40;;;;;;;6.63;4.03;;;21.70;93.90;;;;;;5060680;28;20078;-87
2022/07/29 00:26:06;;;;;;;9.50;4.30;;;21.70;94.20;;;;;;5060602;28;20017;-85
2022/07/29 00:28:32;;;;;;;8.77;4.18;;;21.70;94.40;;;;;;5026668;28;20048;-87
2022/07/29 00:30:58;;;;;;;7.60;4.15;;;21.80;94.50;;;;;;5058661;28;20039;-86
2022/07/29 00:33:24;;;;;;;6.90;4.00;;;21.90;94.50;;;;;;5042166;28;20034;-87
2022/07/29 00:35:50;;;;;;;6.97;3.58;;;21.90;94.60;;;;;;5042630;28;20089;-87
2022/07/29 00:38:18;;;;;;;10.18;4.53;;;21.90;94.60;;;;;;5026326;28;20040;-88
2022/07/29 00:40:45;;;;;;;12.73;4.38;;;21.80;94.70;;;;;;5043359;28;20117;-86
2022/07/29 00:43:12;;;;;;;7.38;4.20;;;21.80;95.00;;;;;;5060335;28;20040;-85
2022/07/29 00:45:38;;;;;;;8.48;4.07;;;21.70;95.10;;;;;;5043312;28;20021;-86
2022/07/29 00:48:04;;;;;;;11.52;3.80;;;21.70;95.40;;;;;;5059989;28;20056;-85
2022/07/29 00:50:34;;;;;;;7.45;4.10;;;21.60;95.80;;;;;;5043095;28;20085;-87
2022/07/29 00:53:00;;;;;;;10.27;4.72;;;21.50;96.20;;;;;;5060107;28;20043;-86
2022/07/29 00:55:27;;;;;;;6.35;4.20;;;21.50;96.40;;;;;;5059842;28;20018;-86
2022/07/29 00:57:53;;;;;;;6.93;3.97;;;21.40;97.00;;;;;;5059760;28;20036;-86
2022/07/29 01:00:22;;;;;;;6.68;3.90;;;21.40;97.20;;;;;;5042741;28;20104;-88
2022/07/29 01:02:48;;;;;;;6.60;3.92;;;21.30;97.40;;;;;;5060062;28;20029;-85
2022/07/29 01:05:26;;;;;;;11.95;4.43;;;21.30;97.70;;;;;;5060062;28;20009;-87
2022/07/29 01:07:53;;;;;;;7.32;4.03;;;21.20;98.10;;;;;;5059811;28;20030;-87
2022/07/29 01:10:21;;;;;;;9.75;4.65;;;21.20;98.30;;;;;;5043022;28;20243;-87
2022/07/29 01:12:49;;;;;;;6.32;4.30;;;21.20;98.80;;;;;;5042846;28;20021;-87
2022/07/29 01:15:15;;;;;;;11.90;4.47;;;21.20;98.80;;;;;;5059937;28;20046;-86
2022/07/29 01:18:01;;;;;;;8.27;4.43;;;21.30;99.10;;;;;;5042524;28;20093;-86
2022/07/29 01:20:33;;;;;;;;;;;21.40;99.00;;;;;;5043035;28;20025;-87
2022/07/29 01:23:32;;;;;;;7.82;4.78;;;21.40;99.00;;;;;;5042863;28;19980;-86
2022/07/29 01:26:27;;;;;;;8.85;4.47;;;21.50;99.10;;;;;;5042421;28;20048;-85
2022/07/29 01:29:15;;;;;;;10.05;4.50;;;21.50;99.20;;;;;;5031249;28;20100;-87
2022/07/29 01:31:44;;;;;;;9.88;4.20;;;21.50;99.10;;;;;;5025245;28;20049;-87
2022/07/29 01:34:21;;;;;;;6.18;4.40;;;21.50;99.30;;;;;;5058327;28;20060;-87
2022/07/29 01:37:01;;;;;;;8.93;4.47;;;21.50;99.40;;;;;;5058918;28;20048;-85
2022/07/29 01:39:32;;;;;;;6.47;4.60;;;21.40;99.60;;;;;;5058820;28;20030;-85
2022/07/29 01:42:01;;;;;;;11.65;4.78;;;21.40;99.80;;;;;;5041900;28;20037;-87
2022/07/29 01:44:45;;;;;;;8.63;4.50;;;21.30;99.90;;;;;;5058874;28;20029;-87
2022/07/29 01:47:17;;;;;;;7.90;4.50;;;21.30;99.90;;;;;;5025203;28;20048;-86
2022/07/29 01:49:49;;;;;;;7.03;4.47;;;21.30;99.90;;;;;;5058503;28;20037;-85
2022/07/29 01:52:39;;;;;;;7.40;4.40;;;21.20;99.90;;;;;;5041415;28;20032;-86
2022/07/29 01:55:13;;;;;;;7.22;4.47;;;21.10;99.90;;;;;;5058186;28;20033;-86
2022/07/29 01:57:42;;;;;;;8.85;4.88;;;21.10;99.90;;;;;;5038314;28;20131;-88
2022/07/29 02:00:09;;;;;;;7.13;4.75;;;21.00;99.90;;;;;;5057408;28;20017;-86
2022/07/29 02:02:41;;;;;;;9.63;4.82;;;21.00;99.90;;;;;;5041505;28;20044;-85
2022/07/29 02:05:10;;;;;;;8.77;5.22;;;20.90;99.90;;;;;;5041009;28;20033;-85
2022/07/29 02:07:37;;;;;;;7.82;4.38;;;20.90;99.90;;;;;;5057964;28;20016;-86
2022/07/29 02:10:06;;;;;;;7.90;4.88;;;20.90;99.90;;;;;;5040582;28;20022;-86
2022/07/29 02:12:33;;;;;;;8.65;4.57;;;20.90;99.90;;;;;;5057894;28;20032;-86
2022/07/29 02:15:01;;;;;;;11.73;4.60;;;21.00;99.90;;;;;;5057752;28;20018;-87
2022/07/29 02:17:39;;;;;;;8.52;4.55;;;21.10;99.90;;;;;;5055852;28;20073;-88
2022/07/29 02:20:06;;;;;;;8.38;4.75;;;21.10;99.90;;;;;;5054094;28;20033;-89
2022/07/29 02:22:37;;;;;;;9.85;4.60;;;21.00;99.90;;;;;;5039394;28;20117;-87
2022/07/29 02:25:05;;;;;;;10.20;4.88;;;21.00;99.90;;;;;;5038605;28;20030;-88
2022/07/29 02:27:33;;;;;;;11.90;5.18;;;20.90;99.90;;;;;;5051984;28;20018;-87
2022/07/29 02:30:02;;;;;;;6.78;4.40;;;20.90;99.90;;;;;;5053966;28;20030;-87
2022/07/29 02:32:29;;;;;;;7.13;4.50;;;20.80;99.90;;;;;;5056386;28;20029;-88
2022/07/29 02:34:57;;;;;;;9.38;5.03;;;20.70;99.90;;;;;;5036318;28;20029;-89
2022/07/29 02:37:24;;;;;;;8.85;5.25;;;20.60;99.90;;;;;;5035842;28;20014;-87
2022/07/29 02:39:53;;;;;;;6.10;4.60;;;20.50;99.90;;;;;;5037479;28;20081;-88
2022/07/29 02:42:21;;;;;;;11.65;4.65;;;20.50;99.90;;;;;;5055828;28;20081;-88
2022/07/29 02:44:47;;;;;;;9.20;4.80;;;20.40;99.90;;;;;;5054953;28;20026;-87
2022/07/29 02:47:21;;;;;;;8.82;4.95;;;20.30;99.90;;;;;;5035980;28;20026;-88
2022/07/29 02:50:09;;;;;;;7.53;5.20;;;20.30;99.90;;;;;;5054146;28;20064;-88
2022/07/29 02:52:41;;;;;;;9.35;5.18;;;20.20;99.90;;;;;;5060224;28;20021;-86
2022/07/29 02:55:18;;;;;;;8.02;5.28;;;20.20;99.90;;;;;;5044612;28;20037;-86
2022/07/29 02:57:51;;;;;;;9.18;4.97;;;20.10;99.90;;;;;;5044303;28;20029;-86
2022/07/29 03:00:17;;;;;;;7.05;5.13;;;20.10;99.90;;;;;;5043585;28;20057;-87
2022/07/29 03:02:50;;;;;;;7.22;4.72;;;20.10;99.90;;;;;;5042074;28;20029;-87
2022/07/29 03:05:19;;;;;;;8.75;4.78;;;20.20;99.90;;;;;;5025795;28;20049;-87
2022/07/29 03:07:57;;;;;;;11.02;5.22;;;20.20;99.90;;;;;;5058375;28;20089;-87
2022/07/29 03:10:25;;;;;;;8.52;5.38;;;20.30;99.90;;;;;;5040345;28;20037;-89
2022/07/29 03:12:51;;;;;;;6.68;4.88;;;20.30;99.90;;;;;;5058681;28;20033;-88
2022/07/29 03:15:18;;;;;;;9.98;5.15;;;20.30;99.90;;;;;;5062001;28;20041;-88
2022/07/29 03:17:45;;;;;;;12.35;5.50;;;20.30;99.90;;;;;;5059200;28;20033;-87
2022/07/29 03:20:12;;;;;;;9.93;5.55;;;20.40;99.90;;;;;;5036219;28;20029;-89
2022/07/29 03:22:43;;;;;;;7.93;5.22;;;20.30;99.90;;;;;;5052180;28;20032;-88
2022/07/29 03:25:14;;;;;;;10.25;5.97;;;20.30;99.90;;;;;;5043648;28;20068;-87
2022/07/29 03:27:40;;;;;;;9.82;5.85;;;20.20;99.90;;;;;;5061570;28;20021;-86
2022/07/29 03:30:08;;;;;;;7.93;5.85;;;20.10;99.90;;;;;;5044565;28;20304;-87
2022/07/29 03:32:34;;;;;;;7.68;4.75;;;20.00;99.90;;;;;;5044636;28;20044;-87
2022/07/29 03:35:00;;;;;;;9.02;5.20;;;20.00;99.90;;;;;;5044493;28;20029;-87
2022/07/29 03:37:26;;;;;;;9.80;5.75;;;20.10;99.90;;;;;;5061761;28;20010;-85
2022/07/29 03:39:55;;;;;;;14.50;5.70;;;20.10;99.90;;;;;;5044361;28;20017;-86
2022/07/29 03:42:26;;;;;;;8.93;5.18;;;20.10;99.90;;;;;;5061573;28;20060;-86
2022/07/29 03:44:54;;;;;;;10.77;5.88;;;20.10;99.90;;;;;;5061234;28;20014;-87
2022/07/29 03:47:25;;;;;;;10.20;5.85;;;20.00;99.90;;;;;;5026279;28;20041;-86
2022/07/29 03:49:53;;;;;;;9.98;5.55;;;20.00;99.90;;;;;;5043600;28;20041;-87
2022/07/29 03:52:20;;;;;;;6.82;5.78;;;20.00;99.90;;;;;;5043617;28;20021;-86
2022/07/29 03:54:47;;;;;;;12.23;5.80;;;19.90;99.90;;;;;;5053749;28;20025;-88
2022/07/29 03:57:15;;;;;;;9.38;5.78;;;19.90;99.90;;;;;;5033430;28;20033;-90
2022/07/29 03:59:43;;;;;;;9.85;5.68;;;19.80;99.90;;;;;;5056400;28;20034;-88
2022/07/29 04:02:11;;;;;;;7.13;5.00;;;19.80;99.90;;;;;;5060620;28;20018;-89
2022/07/29 04:04:37;;;;;;;9.80;5.50;;;19.90;99.90;;;;;;5043965;28;20029;-86
2022/07/29 04:07:04;;;;;;;7.82;5.40;;;19.90;99.90;;;;;;5043504;28;20013;-88
2022/07/29 04:09:30;;;;;;;8.73;5.80;;;20.00;99.90;;;;;;5042860;28;20049;-88
2022/07/29 04:11:56;;;;;;;7.05;5.55;;;20.00;99.90;;;;;;5043819;28;20020;-87
2022/07/29 04:14:22;;;;;;;12.93;6.20;;;20.00;99.90;;;;;;5027437;28;20022;-86
2022/07/29 04:16:50;;;;;;;10.98;5.70;;;20.00;99.90;;;;;;5044207;28;20022;-87
2022/07/29 04:19:16;;;;;;;13.30;5.55;;;20.00;99.90;;;;;;5062778;22;20041;-78
2022/07/29 04:21:43;;;;;;;15.77;6.10;;;20.10;99.90;;;;;;5045079;28;20075;-78
2022/07/29 04:24:09;;;;;;;12.02;5.88;;;20.10;99.90;;;;;;5044661;28;20025;-78
2022/07/29 04:26:35;;;;;;;13.82;6.30;;;20.20;99.90;;;;;;5043367;28;20053;-78
2022/07/29 04:29:01;;;;;;;11.52;5.80;;;20.20;99.90;;;;;;5041574;28;20450;-78
2022/07/29 04:31:26;;;;;;;11.43;5.90;;;20.30;99.90;;;;;;5041165;28;20045;-77
2022/07/29 04:33:52;;;;;;;15.32;6.15;;;20.40;99.90;;;;;;5040421;28;20089;-78
2022/07/29 04:36:18;;;;;;;12.45;5.93;;;20.40;99.90;;;;;;5041156;28;20051;-78
2022/07/29 04:38:44;;;;;;;10.35;5.28;;;20.50;99.90;;;;;;5023301;28;20083;-80
2022/07/29 04:41:09;;;;;;;18.33;6.65;;;20.60;99.90;;;;;;5041338;28;20013;-80
2022/07/29 04:43:35;;;;;;;15.15;5.68;;;20.70;99.90;;;;;;5023182;28;20030;-78
2022/07/29 04:46:02;;;;;;;22.33;5.95;;;20.70;99.90;;;;;;5041235;28;20052;-80
2022/07/29 04:48:28;;;;;;;13.77;5.88;;;20.80;99.90;;;;;;5023971;28;20120;-78
2022/07/29 04:50:54;;;;;;;15.38;6.35;;;20.80;99.90;;;;;;5041199;28;20080;-80
2022/07/29 04:53:20;;;;;;;15.50;6.32;;;20.90;99.90;;;;;;5023043;28;20167;-79
2022/07/29 04:55:45;;;;;;;18.02;6.15;;;21.00;99.90;;;;;;5038971;28;20026;-78
2022/07/29 04:58:11;;;;;;;15.73;5.80;;;21.20;99.90;;;;;;5039126;28;20037;-79
2022/07/29 05:00:38;;;;;;;13.20;5.88;;;21.50;99.90;;;;;;5023133;28;20033;-80
2022/07/29 05:03:04;;;;;;;11.57;6.03;;;21.80;99.90;;;;;;5038135;28;20083;-80
2022/07/29 05:05:30;;;;;;;11.68;6.03;;;22.10;99.90;;;;;;5020421;28;20021;-79
2022/07/29 05:07:56;;;;;;;12.70;6.07;;;22.20;99.90;;;;;;5037525;28;20703;-77
2022/07/29 05:10:22;;;;;;;11.77;5.65;;;22.20;99.90;;;;;;5040482;28;20036;-79
2022/07/29 05:12:48;;;;;;;9.45;5.20;;;22.30;99.90;;;;;;5039108;28;20027;-80
2022/07/29 05:15:14;;;;;;;11.35;5.28;;;22.40;99.90;;;;;;5038999;28;20025;-79
2022/07/29 05:17:40;;;;;;;11.95;5.55;;;22.50;99.90;;;;;;5040016;28;20037;-78
2022/07/29 05:20:07;;;;;;;13.60;5.28;;;22.60;99.90;;;;;;5039128;28;20036;-77
2022/07/29 05:22:32;;;;;;;11.10;5.63;;;22.70;99.90;;;;;;5021818;28;20036;-79
2022/07/29 05:24:59;;;;;;;6.43;4.95;;;22.70;99.90;;;;;;5039250;28;20448;-78
2022/07/29 05:27:24;;;;;;;10.80;5.88;;;22.70;99.90;;;;;;5041679;28;20104;-78
2022/07/29 05:29:50;;;;;;;12.55;5.53;;;22.60;99.90;;;;;;5043090;28;20060;-79
2022/07/29 05:32:17;;;;;;;9.07;5.22;;;22.70;99.90;;;;;;5044154;28;20059;-80
2022/07/29 05:34:43;;;;;;;8.27;5.03;;;22.60;99.90;;;;;;5026358;28;20037;-79
2022/07/29 05:37:09;;;;;;;8.75;5.70;;;22.60;99.90;;;;;;5040088;28;20225;-77
2022/07/29 05:39:35;;;;;;;9.65;5.60;;;22.50;99.90;;;;;;5045044;28;20032;-77
2022/07/29 05:42:00;;;;;;;9.73;5.93;;;22.60;99.90;;;;;;5044627;28;20029;-78
2022/07/29 05:44:26;;;;;;;13.90;5.45;;;22.60;99.90;;;;;;5045559;28;20026;-78
2022/07/29 05:46:52;;;;;;;16.05;5.78;;;22.60;99.90;;;;;;5044711;28;20057;-77
2022/07/29 05:49:18;;;;;;;8.82;5.60;;;22.70;99.90;;;;;;5026037;28;20477;-78
2022/07/29 05:51:44;;;;;;;8.80;5.72;;;22.90;99.90;;;;;;5020259;28;20033;-77
2022/07/29 05:54:10;;;;;;;10.13;5.97;;;23.00;99.90;;;;;;5020532;28;20030;-78
2022/07/29 05:56:36;;;;;;;9.30;5.20;;;23.00;99.90;;;;;;5036913;28;20029;-78
2022/07/29 05:59:03;;;;;;;9.88;5.50;;;23.20;99.90;;;;;;5036752;28;20026;-78
2022/07/29 06:01:28;;;;;;;7.40;5.07;;;23.50;99.90;;;;;;5020924;28;20053;-79
2022/07/29 06:03:54;;;;;;;7.63;5.47;;;23.80;99.90;;;;;;5005330;28;20021;-79
2022/07/29 06:06:20;;;;;;;10.98;5.80;;;23.90;99.90;;;;;;5018458;28;20108;-78
2022/07/29 06:08:46;;;;;;;10.15;5.43;;;24.20;99.90;;;;;;5017480;28;20067;-78
2022/07/29 06:11:11;;;;;;;10.82;5.60;;;24.60;99.80;;;;;;5018552;28;20037;-80
2022/07/29 06:13:38;;;;;;;12.13;5.85;;;24.80;99.40;;;;;;5036956;28;20105;-79
2022/07/29 06:16:04;;;;;;;8.93;5.47;;;24.90;98.90;;;;;;5036923;28;20093;-80
2022/07/29 06:18:30;;;;;;;9.32;5.80;;;25.20;98.70;;;;;;5035241;28;20381;-78
2022/07/29 06:20:56;;;;;;;12.52;5.70;;;25.50;98.00;;;;;;5036785;28;20022;-78
2022/07/29 06:23:21;;;;;;;11.35;6.50;;;25.90;97.20;;;;;;5037382;28;20020;-80
2022/07/29 06:25:48;;;;;;;17.33;6.25;;;26.20;96.50;;;;;;5040045;28;20033;-76
2022/07/29 06:28:14;;;;;;;11.55;5.78;;;26.40;96.00;;;;;;5045451;28;20025;-77
2022/07/29 06:30:40;;;;;;;11.05;5.32;;;26.60;95.70;;;;;;5026592;28;20094;-80
2022/07/29 06:33:06;;;;;;;11.90;5.00;;;26.60;95.40;;;;;;5019560;28;20064;-78
2022/07/29 06:35:35;;;;;;;9.27;5.18;;;26.70;95.20;;;;;;5040437;28;20037;-81
2022/07/29 06:38:02;;;;;;;13.30;5.35;;;26.70;94.80;;;;;;5036543;28;20056;-78
2022/07/29 06:41:15;;;;;;;10.90;5.88;;;26.70;94.90;;;;;;5037159;28;20104;-80
2022/07/29 06:43:15;;;;;;;10.07;5.68;;;26.60;94.80;;;;;;5031132;28;20042;-82
2022/07/29 06:45:42;;;;;;;10.13;5.70;;;26.60;94.60;;;;;;5019930;28;20025;-78
2022/07/29 06:48:09;;;;;;;8.77;5.30;;;26.40;94.70;;;;;;5042853;28;20125;-81
2022/07/29 06:50:35;;;;;;;22.88;13.82;;;26.30;94.90;;;;;;5044064;28;20079;-79
2022/07/29 06:53:00;;;;;;;10.25;6.40;;;26.10;95.20;;;;;;5040497;28;20499;-79
2022/07/29 06:55:26;;;;;;;7.50;5.47;;;26.00;95.40;;;;;;5020112;28;20063;-80
2022/07/29 06:57:52;;;;;;;12.48;5.70;;;25.80;95.60;;;;;;5038092;28;20047;-80
2022/07/29 07:00:18;;;;;;;8.75;5.18;;;25.70;95.50;;;;;;5020134;28;20385;-80
2022/07/29 07:02:45;;;;;;;10.77;5.05;;;25.60;95.70;;;;;;5037616;28;20025;-79
2022/07/29 07:05:11;;;;;;;7.82;4.80;;;25.70;95.90;;;;;;5018859;28;20025;-78
2022/07/29 07:07:37;;;;;;;12.02;5.20;;;25.70;95.90;;;;;;5038303;28;20025;-79
2022/07/29 07:10:03;;;;;;;12.55;5.85;;;25.80;95.70;;;;;;5037230;28;20128;-79
2022/07/29 07:12:29;;;;;;;12.45;5.57;;;25.70;95.70;;;;;;5039348;28;20037;-79
2022/07/29 07:14:55;;;;;;;9.55;5.65;;;25.50;95.70;;;;;;5019166;28;20018;-80
2022/07/29 07:17:20;;;;;;;10.57;5.78;;;25.40;96.00;;;;;;5036250;28;20083;-80
2022/07/29 07:19:46;;;;;;;12.63;5.20;;;25.50;96.00;;;;;;5034658;28;20548;-78
2022/07/29 07:22:12;;;;;;;8.02;5.07;;;25.50;96.10;;;;;;5037166;28;20083;-79
2022/07/29 07:24:37;;;;;;;9.77;4.93;;;25.50;96.10;;;;;;5038875;28;20025;-79
2022/07/29 07:27:03;;;;;;;8.85;5.28;;;25.60;96.10;;;;;;5022559;28;20426;-80
2022/07/29 07:29:29;;;;;;;12.57;4.97;;;25.70;96.20;;;;;;5042330;28;20113;-80
2022/07/29 07:31:55;;;;;;;10.18;5.80;;;25.80;96.10;;;;;;5042008;28;20044;-78
2022/07/29 07:34:21;;;;;;;10.57;5.20;;;26.00;96.60;;;;;;5046416;28;20034;-81
2022/07/29 07:36:46;;;;;;;11.90;4.85;;;26.10;96.10;;;;;;5046948;28;20032;-79
2022/07/29 07:39:12;;;;;;;8.07;5.20;;;26.30;96.00;;;;;;5048866;28;20018;-77
2022/07/29 07:41:38;;;;;;;9.32;5.10;;;26.40;95.90;;;;;;5028418;28;20030;-77
2022/07/29 07:44:04;;;;;;;12.45;6.30;;;26.50;95.70;;;;;;5048465;28;20134;-79
2022/07/29 07:46:30;;;;;;;7.57;5.45;;;26.50;95.60;;;;;;5045051;28;20026;-81
2022/07/29 07:48:56;;;;;;;10.07;4.93;;;26.60;95.50;;;;;;5044339;28;20111;-80
2022/07/29 07:51:22;;;;;;;8.95;5.28;;;26.70;95.40;;;;;;5045091;28;20022;-80
2022/07/29 07:53:50;;;;;;;13.90;5.30;;;26.80;95.20;;;;;;5044005;28;20085;-79
2022/07/29 07:56:16;;;;;;;9.40;4.85;;;26.80;95.10;;;;;;5025443;28;20033;-82
2022/07/29 07:58:42;;;;;;;12.68;5.13;;;26.90;95.10;;;;;;5027689;28;20022;-79
2022/07/29 08:01:08;;;;;;;11.23;4.97;;;27.10;94.80;;;;;;5042974;28;20051;-80
2022/07/29 08:03:34;;;;;;;10.65;5.63;;;27.00;94.70;;;;;;5042401;28;20021;-80
2022/07/29 08:06:01;;;;;;;8.15;4.70;;;27.10;94.70;;;;;;5042258;28;20021;-80
2022/07/29 08:08:26;;;;;;;13.52;5.93;;;27.10;94.80;;;;;;5044692;28;20021;-79
2022/07/29 08:10:52;;;;;;;12.13;5.13;;;27.00;94.70;;;;;;5047928;28;20033;-80
2022/07/29 08:13:20;;;;;;;7.45;4.82;;;26.90;94.90;;;;;;5021552;28;20033;-80
2022/07/29 08:15:45;;;;;;;6.55;5.18;;;26.70;95.00;;;;;;5047454;28;20033;-80
2022/07/29 08:18:12;;;;;;;12.32;4.57;;;26.80;94.90;;;;;;5046138;28;20041;-80
2022/07/29 08:20:39;;;;;;;8.20;5.00;;;27.10;94.80;;;;;;5045279;28;20076;-78
2022/07/29 08:23:08;;;;;;;11.10;5.18;;;27.10;94.60;;;;;;5027257;28;20022;-82
2022/07/29 08:25:35;;;;;;;11.25;5.10;;;27.20;94.30;;;;;;5046565;28;20026;-80
2022/07/29 08:28:01;;;;;;;7.90;4.63;;;27.60;93.80;;;;;;5029598;28;20025;-81
2022/07/29 08:30:27;;;;;;;9.15;4.97;;;27.70;93.70;;;;;;5014238;28;20024;-80
2022/07/29 08:32:53;;;;;;;12.10;6.70;;;27.70;93.70;;;;;;5029541;28;20077;-81
2022/07/29 08:35:20;;;;;;;11.48;5.57;;;27.70;93.40;;;;;;5012457;28;20423;-80
2022/07/29 08:37:46;;;;;;;7.10;5.10;;;27.70;93.30;;;;;;5033389;28;20022;-78
2022/07/29 08:40:13;;;;;;;10.40;5.38;;;27.80;93.30;;;;;;5041084;28;20056;-80
2022/07/29 08:42:40;;;;;;;10.38;5.60;;;27.70;93.40;;;;;;5022265;28;20342;-78
2022/07/29 08:45:06;;;;;;;11.02;5.80;;;27.60;93.40;;;;;;5039315;28;20036;-79
2022/07/29 08:47:33;;;;;;;11.63;5.53;;;27.50;93.60;;;;;;5037415;28;20018;-79
2022/07/29 08:49:59;;;;;;;16.27;6.28;;;27.30;93.60;;;;;;5024909;28;20029;-82
2022/07/29 08:52:26;;;;;;;13.25;5.55;;;27.30;93.90;;;;;;5044956;28;20021;-84
2022/07/29 08:54:53;;;;;;;10.05;5.75;;;27.40;93.80;;;;;;5032079;28;20037;-82
2022/07/29 08:57:21;;;;;;;10.23;5.72;;;27.60;93.60;;;;;;5048936;28;20018;-83
2022/07/29 08:59:50;;;;;;;8.60;5.40;;;28.00;93.20;;;;;;5048338;28;20040;-82
2022/07/29 09:02:23;;;;;;;8.73;5.30;;;28.30;92.70;;;;;;5046846;28;20090;-85
2022/07/29 09:04:49;;;;;;;8.95;5.72;;;28.70;92.20;;;;;;5027640;28;20033;-87
2022/07/29 09:07:17;;;;;;;9.05;5.38;;;28.90;91.90;;;;;;5046092;28;20037;-85
2022/07/29 09:09:43;;;;;;;10.70;5.65;;;29.20;91.70;;;;;;5050394;28;20029;-84
2022/07/29 09:12:11;;;;;;;9.73;6.03;;;29.30;91.30;;;;;;5032409;28;20508;-84
2022/07/29 09:14:38;;;;;;;9.48;5.22;;;29.30;91.40;;;;;;5042157;28;20030;-88
2022/07/29 09:17:04;;;;;;;9.88;5.30;;;29.50;91.10;;;;;;5038749;28;20018;-88
2022/07/29 09:19:32;;;;;;;10.68;5.18;;;29.60;90.80;;;;;;5041862;28;20026;-89
2022/07/29 09:22:00;;;;;;;7.25;4.82;;;29.80;90.60;;;;;;5020501;28;20029;-85
2022/07/29 09:24:47;;;;;;;10.77;5.10;;;30.10;90.30;;;;;;5026951;28;20052;-85
2022/07/29 09:27:22;;;;;;;7.90;4.40;;;30.10;90.00;;;;;;5007386;28;20469;-85
2022/07/29 09:30:13;;;;;;;10.38;4.75;;;30.10;90.10;;;;;;5038900;28;20067;-85
2022/07/29 09:32:58;;;;;;;11.48;5.40;;;30.20;89.50;;;;;;5044271;28;20037;-85
2022/07/29 09:35:25;;;;;;;15.07;5.97;;;30.70;88.90;;;;;;5028239;28;20049;-86
2022/07/29 09:37:51;;;;;;;10.60;4.80;;;30.60;88.50;;;;;;5026897;28;20021;-82
2022/07/29 09:40:20;;;;;;;8.00;5.00;;;30.90;87.70;;;;;;5046823;28;20025;-86
2022/07/29 09:42:46;;;;;;;7.88;5.15;;;31.40;86.60;;;;;;5049999;28;20044;-85
2022/07/29 09:45:25;;;;;;;10.90;5.47;;;31.60;85.80;;;;;;5025809;28;20044;-87
2022/07/29 09:47:51;;;;;;;7.22;4.60;;;31.80;85.60;;;;;;5037458;28;20029;-85
2022/07/29 09:50:23;;;;;;;10.10;5.25;;;32.10;84.30;;;;;;5033745;28;20036;-84
2022/07/29 09:52:51;;;;;;;7.82;4.78;;;32.20;84.10;;;;;;5035061;28;20032;-85
2022/07/29 09:55:17;;;;;;;12.63;4.40;;;32.70;82.80;;;;;;5033750;28;20022;-83
2022/07/29 09:57:45;;;;;;;8.73;4.10;;;32.60;82.60;;;;;;5036624;28;20010;-86
2022/07/29 10:00:14;;;;;;;6.85;4.38;;;32.50;82.30;;;;;;5017367;28;20037;-87
2022/07/29 10:02:45;;;;;;;6.85;4.28;;;32.60;81.50;;;;;;5031781;28;20068;-86
2022/07/29 10:05:24;;;;;;;5.65;4.07;;;32.30;81.30;;;;;;5020820;28;20032;-85
2022/07/29 10:07:55;;;;;;;6.70;4.10;;;32.10;81.40;;;;;;5021484;28;20082;-85
2022/07/29 10:10:27;;;;;;;7.20;4.57;;;32.00;81.00;;;;;;5026702;28;20024;-84
2022/07/29 10:12:58;;;;;;;10.07;4.53;;;32.00;80.60;;;;;;5046451;28;20017;-85
2022/07/29 10:15:29;;;;;;;5.50;4.65;;;32.00;80.60;;;;;;5047134;28;20042;-85
2022/07/29 10:17:56;;;;;;;5.60;4.15;;;31.70;80.80;;;;;;5038159;28;20060;-85
2022/07/29 10:20:23;;;;;;;5.55;4.00;;;31.70;80.70;;;;;;5036325;22;20022;-87
2022/07/29 10:22:55;;;;;;;7.40;4.38;;;31.90;80.00;;;;;;5000970;28;20029;-86
2022/07/29 10:25:27;;;;;;;5.32;3.75;;;31.90;79.80;;;;;;5001169;28;20062;-87
2022/07/29 10:27:54;;;;;;;6.60;3.90;;;32.10;79.40;;;;;;5017380;28;20018;-85
2022/07/29 10:30:22;;;;;;;6.40;4.25;;;32.10;78.80;;;;;;5017767;28;20037;-85
2022/07/29 10:32:57;;;;;;;7.07;3.95;;;32.00;78.40;;;;;;5017809;28;20029;-88
2022/07/29 10:35:38;;;;;;;9.00;4.28;;;32.40;77.20;;;;;;5017790;28;20018;-84
2022/07/29 10:38:04;;;;;;;6.32;3.97;;;32.60;77.10;;;;;;5017944;28;20030;-86
2022/07/29 10:43:36;;;;;;;6.72;3.88;;;35.10;74.10;;;;;;5000878;28;20067;-87
2022/07/29 10:46:03;;;;;;;5.43;3.78;;;36.30;70.50;;;;;;5017940;28;20205;-86
2022/07/29 10:48:29;;;;;;;7.55;3.70;;;35.60;71.40;;;;;;5000809;28;20085;-88
2022/07/29 10:50:56;;;;;;;8.65;4.20;;;35.50;72.00;;;;;;4984870;28;20092;-88
2022/07/29 10:53:23;;;;;;;9.40;3.78;;;36.80;70.00;;;;;;5016002;28;20054;-87
2022/07/29 10:55:52;;;;;;;7.80;3.40;;;38.40;67.20;;;;;;4983434;28;20038;-89
2022/07/29 10:58:18;;;;;;;8.63;4.15;;;38.90;64.80;;;;;;5003052;28;20078;-88
2022/07/29 11:00:46;;;;;;;5.72;3.92;;;37.70;65.40;;;;;;5020773;28;20033;-85
2022/07/29 11:03:42;;;;;;;5.55;3.70;;;36.60;66.70;;;;;;5003704;28;20026;-87
2022/07/29 11:06:08;;;;;;;8.73;3.67;;;35.50;67.80;;;;;;5006870;28;20021;-87
2022/07/29 11:08:33;;;;;;;7.00;4.00;;;34.50;68.90;;;;;;5020281;28;20030;-85
2022/07/29 11:11:18;;;;;;;7.85;4.18;;;33.60;70.10;;;;;;4987652;28;20042;-86
2022/07/29 11:13:51;;;;;;;7.40;4.78;;;33.00;71.20;;;;;;5030547;28;20033;-86
2022/07/29 11:16:21;;;;;;;7.82;4.13;;;32.60;71.00;;;;;;5027018;28;20085;-86
2022/07/29 11:19:12;;;;;;;9.10;3.75;;;32.20;71.80;;;;;;5034083;28;20041;-87
2022/07/29 11:21:41;;;;;;;4.53;3.60;;;32.00;72.10;;;;;;5020952;28;20022;-87
2022/07/29 11:24:14;;;;;;;8.05;3.65;;;32.20;71.70;;;;;;5005204;28;20018;-85
2022/07/29 11:26:41;;;;;;;6.57;4.03;;;32.40;71.50;;;;;;5004688;28;20094;-85
2022/07/29 11:29:22;;;;;;;6.45;4.30;;;32.30;71.40;;;;;;5010637;28;20022;-86
2022/07/29 11:31:55;;;;;;;7.75;4.13;;;33.00;70.90;;;;;;5041204;28;20068;-85
2022/07/29 11:34:40;;;;;;;6.20;4.05;;;33.30;69.80;;;;;;5009925;28;20022;-86
2022/07/29 11:37:09;;;;;;;4.57;3.95;;;33.10;69.90;;;;;;4988140;28;20033;-87
2022/07/29 11:39:38;;;;;;;6.70;3.97;;;32.90;69.80;;;;;;5003446;28;20007;-87
2022/07/29 11:42:20;;;;;;;8.63;4.28;;;32.90;70.50;;;;;;5028488;28;20073;-87
2022/07/29 11:45:15;;;;;;;11.50;4.00;;;33.30;69.80;;;;;;5025288;28;20037;-87
2022/07/29 11:47:46;;;;;;;5.28;3.45;;;33.70;68.80;;;;;;5007733;28;20014;-88
2022/07/29 11:50:44;;;;;;;4.35;3.80;;;34.60;67.80;;;;;;5000798;28;20018;-89
2022/07/29 11:53:36;;;;;;;6.78;3.45;;;34.90;67.20;;;;;;4979754;28;20038;-88
2022/07/29 12:05:03;;;;;;;5.38;3.33;;;40.10;61.50;;;;;;4972859;29;20034;-88
2022/07/29 12:08:19;;;;;;;;;;;;;;;;;;;;;
2022/07/29 12:11:20;;;;;;;31.95;17.67;;;41.50;58.10;;;;;;4948262;28;20127;-89
2022/07/29 12:26:58;;;;;;;7.88;3.63;;;41.70;56.40;;;;;;4894880;29;20065;-87
2022/07/29 12:41:23;;;;;;;5.28;3.33;;;41.20;55.50;;;;;;4960064;28;20030;-87
2022/07/29 12:48:36;;;;;;;7.60;3.13;;;38.50;58.10;;;;;;4995062;28;20042;-85
2022/07/29 12:51:32;;;;;;;11.48;3.45;;;37.00;59.50;;;;;;5021599;28;20045;-87
2022/07/29 12:54:10;;;;;;;5.38;3.45;;;35.70;61.50;;;;;;5001314;28;20046;-87
2022/07/29 12:56:44;;;;;;;3.88;3.47;;;35.00;62.40;;;;;;5001388;28;20065;-88
2022/07/29 12:59:19;;;;;;;7.77;3.67;;;34.10;63.80;;;;;;5017385;28;20064;-88
2022/07/29 13:01:48;;;;;;;5.55;3.70;;;33.30;65.10;;;;;;4984461;28;20089;-89
2022/07/29 13:04:26;;;;;;;7.15;4.10;;;32.70;66.40;;;;;;5000971;28;20058;-86
2022/07/29 13:07:00;;;;;;;6.60;3.72;;;32.30;67.10;;;;;;5015390;28;20117;-88
2022/07/29 13:09:45;;;;;;;6.22;3.60;;;32.10;67.60;;;;;;5005533;28;20057;-86
2022/07/29 13:12:12;;;;;;;7.95;3.92;;;31.70;68.40;;;;;;5015509;28;20046;-84
2022/07/29 13:14:40;;;;;;;10.93;4.75;;;31.30;69.70;;;;;;5035914;28;20093;-85
2022/07/29 13:17:10;;;;;;;8.90;4.72;;;31.10;70.90;;;;;;5037880;28;20036;-86
2022/07/29 13:19:44;;;;;;;10.65;4.32;;;30.80;71.80;;;;;;5019178;28;20014;-84
2022/07/29 13:22:15;;;;;;;6.60;4.32;;;30.70;72.40;;;;;;5037569;28;20056;-86
2022/07/29 13:24:52;;;;;;;9.35;4.85;;;30.40;73.00;;;;;;5001460;28;20042;-85
2022/07/29 13:27:20;;;;;;;13.52;4.43;;;30.20;74.10;;;;;;5028373;28;20057;-85
2022/07/29 13:29:46;;;;;;;6.28;4.70;;;29.90;74.40;;;;;;5036948;28;20030;-85
2022/07/29 13:32:12;;;;;;;7.05;4.40;;;29.60;75.20;;;;;;5019225;28;20049;-85
2022/07/29 13:34:38;;;;;;;6.15;4.45;;;29.40;75.60;;;;;;5014041;28;20034;-85
2022/07/29 13:37:05;;;;;;;5.72;4.53;;;29.10;76.40;;;;;;5033153;28;20033;-84
2022/07/29 13:39:31;;;;;;;7.88;4.43;;;28.90;77.10;;;;;;5035219;28;20010;-84